Time,TemperatureF,DewpointF,PressureIn,WindDirection,WindDirectionDegrees,WindSpeedMPH,WindSpeedGustMPH,Humidity,HourlyPrecipIn,Conditions,Clouds,dailyrainin,SoftwareType,DateUTC
2013-01-12 00:02:00,38.7,36.9,30.18,SW,225,2.2,-999.0,93,-99.99,,,0.00,Acu-Link.com,2013-01-12 05:02:00,
2013-01-12 00:17:00,38.7,36.9,30.16,SE,135,2.7,-999.0,93,-99.99,,,0.00,Acu-Link.com,2013-01-12 05:17:00,
2013-01-12 00:32:00,38.7,36.9,30.16,SSE,157,3.7,-999.0,93,-99.99,,,0.00,Acu-Link.com,2013-01-12 05:32:00,
2013-01-12 00:48:00,38.7,37.1,30.16,South,180,2.7,-999.0,94,-99.99,,,0.00,Acu-Link.com,2013-01-12 05:48:00,
2013-01-12 01:03:00,38.7,37.1,30.14,East,90,2.7,-999.0,94,-99.99,,,0.00,Acu-Link.com,2013-01-12 06:03:00,
2013-01-12 01:18:00,38.7,37.1,30.13,SSE,157,3.2,-999.0,94,-99.99,,,0.00,Acu-Link.com,2013-01-12 06:18:00,
2013-01-12 01:33:00,38.7,37.1,30.14,West,270,4.2,-999.0,94,-99.99,,,0.00,Acu-Link.com,2013-01-12 06:33:00,
2013-01-12 01:49:00,38.8,37.2,30.14,SSE,157,5.3,-999.0,94,-99.99,,,0.00,Acu-Link.com,2013-01-12 06:49:00,
2013-01-12 02:04:00,39.0,37.4,30.12,SE,135,7.3,-999.0,94,-99.99,,,0.00,Acu-Link.com,2013-01-12 07:04:00,
2013-01-12 02:19:00,39.2,37.3,30.14,South,180,3.7,-999.0,93,-99.99,,,0.00,Acu-Link.com,2013-01-12 07:19:00,
2013-01-12 02:35:00,39.4,37.5,30.13,South,180,6.8,-999.0,93,-99.99,,,0.00,Acu-Link.com,2013-01-12 07:35:00,
2013-01-12 02:50:00,39.6,37.7,30.13,ESE,112,5.8,-999.0,93,-99.99,,,0.00,Acu-Link.com,2013-01-12 07:50:00,
2013-01-12 03:05:00,39.6,37.7,30.12,ESE,112,3.2,-999.0,93,-99.99,,,0.00,Acu-Link.com,2013-01-12 08:05:00,
2013-01-12 03:20:00,39.6,37.7,30.12,East,90,2.2,-999.0,93,-99.99,,,0.00,Acu-Link.com,2013-01-12 08:20:00,
2013-01-12 03:36:00,39.7,37.8,30.10,SE,135,6.3,-999.0,93,-99.99,,,0.00,Acu-Link.com,2013-01-12 08:36:00,
2013-01-12 03:51:00,39.7,37.8,30.10,SE,135,5.3,-999.0,93,-99.99,,,0.00,Acu-Link.com,2013-01-12 08:51:00,
2013-01-12 04:10:00,39.9,38.0,30.10,South,180,8.9,-999.0,93,-99.99,,,0.00,Acu-Link.com,2013-01-12 09:10:00,
2013-01-12 04:25:00,39.9,37.8,30.10,ESE,112,6.3,-999.0,92,-99.99,,,0.00,Acu-Link.com,2013-01-12 09:25:00,
2013-01-12 04:41:00,40.1,38.0,30.10,South,180,5.3,-999.0,92,-99.99,,,0.00,Acu-Link.com,2013-01-12 09:41:00,
2013-01-12 04:56:00,40.1,38.0,30.08,ESE,112,2.2,-999.0,92,-99.99,,,0.00,Acu-Link.com,2013-01-12 09:56:00,
2013-01-12 05:11:00,40.1,38.0,30.10,ESE,112,2.2,-999.0,92,-99.99,,,0.00,Acu-Link.com,2013-01-12 10:11:00,
2013-01-12 05:27:00,40.1,38.0,30.11,SE,135,1.7,-999.0,92,-99.99,,,0.00,Acu-Link.com,2013-01-12 10:27:00,
2013-01-12 05:42:00,40.1,38.0,30.11,ESE,112,1.7,-999.0,92,-99.99,,,0.00,Acu-Link.com,2013-01-12 10:42:00,
2013-01-12 05:57:00,40.1,38.2,30.10,SSW,202,2.2,-999.0,93,-99.99,,,0.00,Acu-Link.com,2013-01-12 10:57:00,
2013-01-12 06:12:00,39.9,38.3,30.09,East,90,1.7,-999.0,94,-99.99,,,0.00,Acu-Link.com,2013-01-12 11:12:00,
2013-01-12 06:28:00,39.9,38.3,30.09,SE,135,2.7,-999.0,94,-99.99,,,0.00,Acu-Link.com,2013-01-12 11:28:00,
2013-01-12 06:43:00,39.9,38.6,30.10,NNE,22,0.0,-999.0,95,-99.99,,,0.00,Acu-Link.com,2013-01-12 11:43:00,
2013-01-12 06:58:00,39.9,38.6,30.10,WNW,292,0.0,-999.0,95,-99.99,,,0.00,Acu-Link.com,2013-01-12 11:58:00,
2013-01-12 07:14:00,39.9,38.6,30.10,North,0,0.0,-999.0,95,-99.99,,,0.00,Acu-Link.com,2013-01-12 12:14:00,
2013-01-12 07:29:00,39.9,38.6,30.10,NNW,337,0.0,-999.0,95,-99.99,,,0.01,Acu-Link.com,2013-01-12 12:29:00,
2013-01-12 07:44:00,40.1,38.8,30.12,SW,225,0.0,-999.0,95,-99.99,,,0.01,Acu-Link.com,2013-01-12 12:44:00,
2013-01-12 08:00:00,40.1,38.8,30.11,WSW,247,0.0,-999.0,95,-99.99,,,0.01,Acu-Link.com,2013-01-12 13:00:00,
2013-01-12 08:15:00,40.6,39.3,30.12,WNW,292,0.0,-999.0,95,-99.99,,,0.01,Acu-Link.com,2013-01-12 13:15:00,
2013-01-12 08:30:00,41.4,40.1,30.10,ESE,112,0.0,-999.0,95,-99.99,,,0.01,Acu-Link.com,2013-01-12 13:30:00,
2013-01-12 08:45:00,41.7,40.4,30.13,ESE,112,0.0,-999.0,95,-99.99,,,0.01,Acu-Link.com,2013-01-12 13:45:00,
2013-01-12 09:01:00,42.1,40.8,30.13,SW,225,0.0,-999.0,95,-99.99,,,0.01,Acu-Link.com,2013-01-12 14:01:00,
2013-01-12 09:16:00,42.4,40.8,30.13,NNW,337,0.0,-999.0,94,-99.99,,,0.01,Acu-Link.com,2013-01-12 14:16:00,
2013-01-12 09:32:00,43.3,41.4,30.13,WNW,292,0.0,-999.0,93,-99.99,,,0.01,Acu-Link.com,2013-01-12 14:32:00,
2013-01-12 09:47:00,44.1,41.4,30.12,North,0,0.0,-999.0,90,-99.99,,,0.01,Acu-Link.com,2013-01-12 14:47:00,
2013-01-12 10:03:00,45.5,41.6,30.12,NW,315,1.1,-999.0,86,-99.99,,,0.01,Acu-Link.com,2013-01-12 15:03:00,
2013-01-12 10:18:00,46.4,41.8,30.12,SE,135,0.0,-999.0,84,-99.99,,,0.01,Acu-Link.com,2013-01-12 15:18:00,
2013-01-12 10:34:00,46.9,42.0,30.11,WSW,247,1.7,-999.0,83,-99.99,,,0.01,Acu-Link.com,2013-01-12 15:34:00,
2013-01-12 10:49:00,46.8,41.3,30.10,South,180,0.0,-999.0,81,-99.99,,,0.01,Acu-Link.com,2013-01-12 15:49:00,
2013-01-12 11:04:00,46.4,40.9,30.10,South,180,0.0,-999.0,81,-99.99,,,0.01,Acu-Link.com,2013-01-12 16:04:00,
2013-01-12 11:20:00,46.2,40.7,30.09,SW,225,1.7,-999.0,81,-99.99,,,0.01,Acu-Link.com,2013-01-12 16:20:00,
2013-01-12 11:35:00,45.5,40.6,30.08,ESE,112,4.2,-999.0,83,-99.99,,,0.01,Acu-Link.com,2013-01-12 16:35:00,
2013-01-12 11:50:00,45.7,40.5,30.08,NNE,22,2.2,-999.0,82,-99.99,,,0.01,Acu-Link.com,2013-01-12 16:50:00,
2013-01-12 12:06:00,45.3,40.4,30.05,ESE,112,4.2,-999.0,83,-99.99,,,0.01,Acu-Link.com,2013-01-12 17:06:00,
2013-01-12 12:21:00,45.0,40.2,30.06,ESE,112,3.2,-999.0,83,-99.99,,,0.01,Acu-Link.com,2013-01-12 17:21:00,
2013-01-12 12:36:00,45.5,40.0,30.06,ENE,67,2.2,-999.0,81,-99.99,,,0.01,Acu-Link.com,2013-01-12 17:36:00,
2013-01-12 12:53:00,45.1,39.9,30.07,South,180,2.2,-999.0,82,-99.99,,,0.01,Acu-Link.com,2013-01-12 17:53:00,
2013-01-12 13:08:00,45.3,40.1,30.08,ESE,112,1.7,-999.0,82,-99.99,,,0.01,Acu-Link.com,2013-01-12 18:08:00,
2013-01-12 13:24:00,45.3,39.8,30.06,SSE,157,0.0,-999.0,81,-99.99,,,0.01,Acu-Link.com,2013-01-12 18:24:00,
2013-01-12 13:39:00,45.7,40.5,30.07,SE,135,1.1,-999.0,82,-99.99,,,0.01,Acu-Link.com,2013-01-12 18:39:00,
2013-01-12 13:54:00,46.0,40.2,30.09,WSW,247,1.1,-999.0,80,-99.99,,,0.01,Acu-Link.com,2013-01-12 18:54:00,
2013-01-12 14:09:00,45.5,40.0,30.10,SE,135,0.0,-999.0,81,-99.99,,,0.01,Acu-Link.com,2013-01-12 19:09:00,
2013-01-12 14:25:00,45.5,40.6,30.08,NNW,337,0.0,-999.0,83,-99.99,,,0.01,Acu-Link.com,2013-01-12 19:25:00,
2013-01-12 14:40:00,45.3,40.4,30.08,SE,135,3.7,-999.0,83,-99.99,,,0.01,Acu-Link.com,2013-01-12 19:40:00,
2013-01-12 14:55:00,45.0,40.5,30.09,SE,135,1.1,-999.0,84,-99.99,,,0.01,Acu-Link.com,2013-01-12 19:55:00,
2013-01-12 15:11:00,44.8,40.3,30.08,ESE,112,2.2,-999.0,84,-99.99,,,0.01,Acu-Link.com,2013-01-12 20:11:00,
2013-01-12 15:26:00,44.8,40.0,30.08,SSW,202,0.0,-999.0,83,-99.99,,,0.01,Acu-Link.com,2013-01-12 20:26:00,
2013-01-12 15:42:00,44.6,40.1,30.10,West,270,0.0,-999.0,84,-99.99,,,0.01,Acu-Link.com,2013-01-12 20:42:00,
2013-01-12 15:57:00,44.2,39.7,30.08,SSW,202,0.0,-999.0,84,-99.99,,,0.01,Acu-Link.com,2013-01-12 20:57:00,
2013-01-12 16:12:00,43.7,39.5,30.09,West,270,0.0,-999.0,85,-99.99,,,0.01,Acu-Link.com,2013-01-12 21:12:00,
2013-01-12 16:27:00,43.3,39.4,30.08,ESE,112,2.2,-999.0,86,-99.99,,,0.01,Acu-Link.com,2013-01-12 21:27:00,
2013-01-12 16:43:00,43.2,39.3,30.07,SE,135,1.7,-999.0,86,-99.99,,,0.01,Acu-Link.com,2013-01-12 21:43:00,
2013-01-12 16:58:00,42.8,39.5,30.05,SSE,157,0.0,-999.0,88,-99.99,,,0.01,Acu-Link.com,2013-01-12 21:58:00,
2013-01-12 17:14:00,42.8,39.5,30.07,West,270,0.0,-999.0,88,-99.99,,,0.01,Acu-Link.com,2013-01-12 22:14:00,
2013-01-12 17:29:00,42.8,39.5,30.07,West,270,1.7,-999.0,88,-99.99,,,0.01,Acu-Link.com,2013-01-12 22:29:00,
2013-01-12 17:44:00,42.8,40.1,30.05,WSW,247,2.7,-999.0,90,-99.99,,,0.01,Acu-Link.com,2013-01-12 22:44:00,
2013-01-12 18:00:00,42.8,40.4,30.08,WSW,247,2.2,-999.0,91,-99.99,,,0.01,Acu-Link.com,2013-01-12 23:00:00,
2013-01-12 18:31:00,42.8,40.6,30.06,West,270,0.0,-999.0,92,-99.99,,,0.01,Acu-Link.com,2013-01-12 23:31:00,
2013-01-12 18:46:00,42.8,40.9,30.07,NNW,337,0.0,-999.0,93,-99.99,,,0.01,Acu-Link.com,2013-01-12 23:46:00,
2013-01-12 19:01:00,42.8,40.9,30.07,NW,315,0.0,-999.0,93,-99.99,,,0.01,Acu-Link.com,2013-01-13 00:01:00,
2013-01-12 19:17:00,42.8,41.2,30.07,East,90,0.0,-999.0,94,-99.99,,,0.01,Acu-Link.com,2013-01-13 00:17:00,
2013-01-12 19:32:00,42.8,41.2,30.07,South,180,0.0,-999.0,94,-99.99,,,0.01,Acu-Link.com,2013-01-13 00:32:00,
2013-01-12 19:47:00,42.6,41.0,30.06,SW,225,0.0,-999.0,94,-99.99,,,0.01,Acu-Link.com,2013-01-13 00:47:00,
2013-01-12 20:03:00,42.6,41.0,30.07,SSE,157,0.0,-999.0,94,-99.99,,,0.01,Acu-Link.com,2013-01-13 01:03:00,
2013-01-12 20:18:00,42.6,41.0,30.07,NNW,337,0.0,-999.0,94,-99.99,,,0.01,Acu-Link.com,2013-01-13 01:18:00,
2013-01-12 20:33:00,42.6,41.0,30.07,ENE,67,0.0,-999.0,94,-99.99,,,0.01,Acu-Link.com,2013-01-13 01:33:00,
2013-01-12 20:48:00,42.6,41.0,30.06,NW,315,0.0,-999.0,94,-99.99,,,0.01,Acu-Link.com,2013-01-13 01:48:00,
2013-01-12 21:04:00,42.6,41.0,30.08,ENE,67,0.0,-999.0,94,-99.99,,,0.01,Acu-Link.com,2013-01-13 02:04:00,
2013-01-12 21:19:00,42.6,41.3,30.06,ESE,112,0.0,-999.0,95,-99.99,,,0.01,Acu-Link.com,2013-01-13 02:19:00,
2013-01-12 21:34:00,42.6,41.3,30.07,SSE,157,0.0,-999.0,95,-99.99,,,0.01,Acu-Link.com,2013-01-13 02:34:00,
2013-01-12 21:50:00,42.6,41.3,30.05,ESE,112,0.0,-999.0,95,-99.99,,,0.01,Acu-Link.com,2013-01-13 02:50:00,
2013-01-12 22:05:00,42.6,41.3,30.06,NW,315,0.0,-999.0,95,-99.99,,,0.01,Acu-Link.com,2013-01-13 03:05:00,
2013-01-12 22:20:00,42.8,41.5,30.05,West,270,0.0,-999.0,95,-99.99,,,0.01,Acu-Link.com,2013-01-13 03:20:00,
2013-01-12 22:36:00,42.8,41.5,30.04,SE,135,0.0,-999.0,95,-99.99,,,0.01,Acu-Link.com,2013-01-13 03:36:00,
2013-01-12 22:51:00,42.8,41.5,30.05,WSW,247,0.0,-999.0,95,-99.99,,,0.01,Acu-Link.com,2013-01-13 03:51:00,
2013-01-12 23:06:00,42.8,41.5,30.05,SSW,202,0.0,-999.0,95,-99.99,,,0.01,Acu-Link.com,2013-01-13 04:06:00,
2013-01-12 23:22:00,43.0,41.7,30.05,NNE,22,0.0,-999.0,95,-99.99,,,0.01,Acu-Link.com,2013-01-13 04:22:00,
2013-01-12 23:37:00,43.0,41.9,30.07,West,270,0.0,-999.0,96,-99.99,,,0.01,Acu-Link.com,2013-01-13 04:37:00,
2013-01-12 23:52:00,43.0,41.9,30.06,NE,45,0.0,-999.0,96,-99.99,,,0.01,Acu-Link.com,2013-01-13 04:52:00,